Kezdőlap
METAR-TAF:

METAR-TAF

Repülőterek :

Emporia Municipal Airport

Emporia, Kansas, Amerikai Egyesült Államok

földrajzi szélesség: 38-19-44N, földrajzi hosszúság: 096-11-38W, magasság: 367 m

Jelenlegi meteorológiai megfigyelések

A jelentés 13 perccel ezelõtt készült, 02:53 UTC
Déli szél 11 kt
Hőmérséklet 25°C
Páratartalom 65%
Légköri nyomás 1011 hPa
Látótávolság: 16.1 km
Derült ég

METAR: KEMP 130253Z AUTO 17011KT 10SM CLR 25/18 A2986 RMK AO2 SLP100 T02500183 55002

Idő: 22:06 (03:06 UTC)


TAF: hiányzik

Meteorológiai megfigyelések és előrejelzések több, mint 4000 repülőtéren (METAR és TAF jelentéseket).

A térképen piros és sárga pontok jelzik az elérhető meteorológiai állomásokat.

Mozgassa az egeret a pont fölött, hogy megjelenjen az állomás neve.

Azután kattintson az időjárási megfigyelések és előrejelzések megtekintéséhez.

A térkép megváltoztatása: kattintson a fekete keresztel jelölt zöld gombra ráközelítéshez, a vonallal jelölt zöld gombra távolításhoz, vagy a zöld nyilakra a szomszédos térképek eléréséhez.


METAR-TAF: